sensor_id;sensor_type;location;lat;lon;timestamp;P1;durP1;ratioP1;P2;durP2;ratioP2
51578;SDS011;47998;53.242;6.386;2023-05-19T00:01:36;20.17;;;8.98;;
51578;SDS011;47998;53.242;6.386;2023-05-19T00:04:02;15.07;;;8.57;;
51578;SDS011;47998;53.242;6.386;2023-05-19T00:06:30;23.42;;;9.25;;
51578;SDS011;47998;53.242;6.386;2023-05-19T00:09:04;16.17;;;8.43;;
51578;SDS011;47998;53.242;6.386;2023-05-19T00:11:33;23.77;;;9.57;;
51578;SDS011;47998;53.242;6.386;2023-05-19T00:14:00;20.70;;;10.75;;
51578;SDS011;47998;53.242;6.386;2023-05-19T00:16:27;20.95;;;8.80;;
51578;SDS011;47998;53.242;6.386;2023-05-19T00:18:54;22.27;;;9.50;;
51578;SDS011;47998;53.242;6.386;2023-05-19T00:21:21;24.42;;;9.75;;
51578;SDS011;47998;53.242;6.386;2023-05-19T00:23:47;24.58;;;9.20;;
51578;SDS011;47998;53.242;6.386;2023-05-19T00:26:13;21.20;;;9.35;;
51578;SDS011;47998;53.242;6.386;2023-05-19T00:28:39;23.70;;;9.45;;
51578;SDS011;47998;53.242;6.386;2023-05-19T00:31:05;19.83;;;9.50;;
51578;SDS011;47998;53.242;6.386;2023-05-19T00:33:31;18.52;;;8.80;;
51578;SDS011;47998;53.242;6.386;2023-05-19T00:35:58;21.40;;;9.27;;
51578;SDS011;47998;53.242;6.386;2023-05-19T00:38:30;19.02;;;9.77;;
51578;SDS011;47998;53.242;6.386;2023-05-19T00:40:56;26.08;;;10.95;;
51578;SDS011;47998;53.242;6.386;2023-05-19T00:43:22;29.38;;;11.45;;
51578;SDS011;47998;53.242;6.386;2023-05-19T00:45:48;27.75;;;9.57;;
51578;SDS011;47998;53.242;6.386;2023-05-19T00:48:14;29.17;;;10.60;;
51578;SDS011;47998;53.242;6.386;2023-05-19T00:50:40;22.90;;;9.73;;
51578;SDS011;47998;53.242;6.386;2023-05-19T00:53:06;29.52;;;10.63;;
51578;SDS011;47998;53.242;6.386;2023-05-19T00:55:31;27.33;;;11.77;;
51578;SDS011;47998;53.242;6.386;2023-05-19T00:57:59;27.48;;;10.20;;
51578;SDS011;47998;53.242;6.386;2023-05-19T01:00:25;26.92;;;11.02;;
51578;SDS011;47998;53.242;6.386;2023-05-19T01:02:51;34.28;;;10.18;;
51578;SDS011;47998;53.242;6.386;2023-05-19T01:05:18;26.90;;;9.60;;
51578;SDS011;47998;53.242;6.386;2023-05-19T01:07:43;27.20;;;10.23;;
51578;SDS011;47998;53.242;6.386;2023-05-19T01:10:11;24.42;;;9.10;;
51578;SDS011;47998;53.242;6.386;2023-05-19T01:12:36;21.67;;;9.45;;
51578;SDS011;47998;53.242;6.386;2023-05-19T01:15:04;27.98;;;9.10;;
51578;SDS011;47998;53.242;6.386;2023-05-19T01:20:16;27.95;;;9.20;;
51578;SDS011;47998;53.242;6.386;2023-05-19T01:22:56;24.60;;;8.93;;
51578;SDS011;47998;53.242;6.386;2023-05-19T01:28:06;21.45;;;8.35;;
51578;SDS011;47998;53.242;6.386;2023-05-19T01:30:42;30.30;;;9.60;;
51578;SDS011;47998;53.242;6.386;2023-05-19T01:33:10;18.88;;;8.27;;
51578;SDS011;47998;53.242;6.386;2023-05-19T01:35:38;26.02;;;9.13;;
51578;SDS011;47998;53.242;6.386;2023-05-19T01:38:07;30.75;;;9.38;;
51578;SDS011;47998;53.242;6.386;2023-05-19T01:40:34;23.13;;;8.73;;
51578;SDS011;47998;53.242;6.386;2023-05-19T01:43:01;29.75;;;9.50;;
51578;SDS011;47998;53.242;6.386;2023-05-19T01:45:29;23.88;;;9.55;;
51578;SDS011;47998;53.242;6.386;2023-05-19T01:47:57;26.83;;;9.50;;
51578;SDS011;47998;53.242;6.386;2023-05-19T01:50:25;28.77;;;9.35;;
51578;SDS011;47998;53.242;6.386;2023-05-19T01:52:51;28.10;;;8.90;;
51578;SDS011;47998;53.242;6.386;2023-05-19T01:55:17;26.15;;;8.52;;
51578;SDS011;47998;53.242;6.386;2023-05-19T01:57:53;39.08;;;9.52;;
51578;SDS011;47998;53.242;6.386;2023-05-19T02:09:01;21.40;;;8.75;;
51578;SDS011;47998;53.242;6.386;2023-05-19T02:11:36;26.83;;;9.80;;
51578;SDS011;47998;53.242;6.386;2023-05-19T02:14:26;18.05;;;8.00;;
51578;SDS011;47998;53.242;6.386;2023-05-19T02:17:04;23.50;;;8.45;;
51578;SDS011;47998;53.242;6.386;2023-05-19T02:19:31;25.23;;;8.52;;
51578;SDS011;47998;53.242;6.386;2023-05-19T02:22:03;20.25;;;8.90;;
51578;SDS011;47998;53.242;6.386;2023-05-19T02:24:28;24.77;;;8.32;;
51578;SDS011;47998;53.242;6.386;2023-05-19T02:26:54;28.98;;;8.23;;
51578;SDS011;47998;53.242;6.386;2023-05-19T02:29:20;29.42;;;8.27;;
51578;SDS011;47998;53.242;6.386;2023-05-19T02:31:46;21.05;;;9.02;;
51578;SDS011;47998;53.242;6.386;2023-05-19T02:34:12;24.17;;;8.45;;
51578;SDS011;47998;53.242;6.386;2023-05-19T02:36:38;22.80;;;7.70;;
51578;SDS011;47998;53.242;6.386;2023-05-19T02:39:05;21.67;;;7.80;;
51578;SDS011;47998;53.242;6.386;2023-05-19T02:41:31;26.30;;;8.98;;
51578;SDS011;47998;53.242;6.386;2023-05-19T02:43:57;26.42;;;7.97;;
51578;SDS011;47998;53.242;6.386;2023-05-19T02:46:22;22.55;;;8.38;;
51578;SDS011;47998;53.242;6.386;2023-05-19T02:48:49;28.42;;;8.55;;
51578;SDS011;47998;53.242;6.386;2023-05-19T02:51:15;23.02;;;7.57;;
51578;SDS011;47998;53.242;6.386;2023-05-19T02:53:40;31.08;;;8.10;;
51578;SDS011;47998;53.242;6.386;2023-05-19T02:56:06;26.13;;;8.52;;
51578;SDS011;47998;53.242;6.386;2023-05-19T02:58:32;33.35;;;9.32;;
51578;SDS011;47998;53.242;6.386;2023-05-19T03:00:57;24.67;;;8.70;;
51578;SDS011;47998;53.242;6.386;2023-05-19T03:03:23;23.10;;;8.15;;
51578;SDS011;47998;53.242;6.386;2023-05-19T03:05:49;27.30;;;8.75;;
51578;SDS011;47998;53.242;6.386;2023-05-19T03:08:15;28.00;;;7.97;;
51578;SDS011;47998;53.242;6.386;2023-05-19T03:10:41;23.30;;;6.03;;
51578;SDS011;47998;53.242;6.386;2023-05-19T03:13:07;15.52;;;5.40;;
51578;SDS011;47998;53.242;6.386;2023-05-19T03:15:33;167.20;;;10.40;;
51578;SDS011;47998;53.242;6.386;2023-05-19T03:17:59;304.20;;;15.20;;
51578;SDS011;47998;53.242;6.386;2023-05-19T03:20:24;143.18;;;11.35;;
51578;SDS011;47998;53.242;6.386;2023-05-19T03:22:50;75.22;;;7.93;;
51578;SDS011;47998;53.242;6.386;2023-05-19T03:25:16;116.05;;;9.20;;
51578;SDS011;47998;53.242;6.386;2023-05-19T03:27:42;181.95;;;10.52;;
51578;SDS011;47998;53.242;6.386;2023-05-19T03:30:07;223.15;;;10.68;;
51578;SDS011;47998;53.242;6.386;2023-05-19T03:32:34;141.70;;;7.40;;
51578;SDS011;47998;53.242;6.386;2023-05-19T03:35:02;158.35;;;11.13;;
51578;SDS011;47998;53.242;6.386;2023-05-19T03:37:29;26.10;;;5.25;;
51578;SDS011;47998;53.242;6.386;2023-05-19T03:39:56;11.35;;;4.63;;
51578;SDS011;47998;53.242;6.386;2023-05-19T03:42:22;15.80;;;4.95;;
51578;SDS011;47998;53.242;6.386;2023-05-19T03:44:48;98.97;;;7.82;;
51578;SDS011;47998;53.242;6.386;2023-05-19T03:47:14;109.30;;;8.65;;
51578;SDS011;47998;53.242;6.386;2023-05-19T03:49:40;18.08;;;4.90;;
51578;SDS011;47998;53.242;6.386;2023-05-19T03:52:06;31.30;;;7.20;;
51578;SDS011;47998;53.242;6.386;2023-05-19T03:54:31;15.30;;;4.93;;
51578;SDS011;47998;53.242;6.386;2023-05-19T03:56:57;112.60;;;8.00;;
51578;SDS011;47998;53.242;6.386;2023-05-19T03:59:23;206.52;;;10.90;;
51578;SDS011;47998;53.242;6.386;2023-05-19T04:01:49;222.73;;;10.90;;
51578;SDS011;47998;53.242;6.386;2023-05-19T04:04:15;238.70;;;12.03;;
51578;SDS011;47998;53.242;6.386;2023-05-19T04:06:41;191.32;;;10.65;;
51578;SDS011;47998;53.242;6.386;2023-05-19T04:09:10;361.67;;;19.97;;
51578;SDS011;47998;53.242;6.386;2023-05-19T04:11:37;299.27;;;17.63;;
51578;SDS011;47998;53.242;6.386;2023-05-19T04:14:04;61.43;;;7.13;;
51578;SDS011;47998;53.242;6.386;2023-05-19T04:16:30;43.43;;;7.80;;
51578;SDS011;47998;53.242;6.386;2023-05-19T04:18:56;21.00;;;8.17;;
51578;SDS011;47998;53.242;6.386;2023-05-19T04:21:22;26.40;;;10.23;;
51578;SDS011;47998;53.242;6.386;2023-05-19T04:23:47;31.05;;;13.00;;
51578;SDS011;47998;53.242;6.386;2023-05-19T04:26:13;33.83;;;13.23;;
51578;SDS011;47998;53.242;6.386;2023-05-19T04:28:40;32.15;;;14.70;;
51578;SDS011;47998;53.242;6.386;2023-05-19T04:31:09;48.95;;;16.15;;
51578;SDS011;47998;53.242;6.386;2023-05-19T04:33:36;38.20;;;16.92;;
51578;SDS011;47998;53.242;6.386;2023-05-19T04:36:02;38.95;;;15.80;;
51578;SDS011;47998;53.242;6.386;2023-05-19T04:38:32;44.90;;;16.27;;
51578;SDS011;47998;53.242;6.386;2023-05-19T04:40:58;54.08;;;16.27;;
51578;SDS011;47998;53.242;6.386;2023-05-19T04:43:26;40.85;;;15.07;;
51578;SDS011;47998;53.242;6.386;2023-05-19T04:45:52;41.75;;;15.02;;
51578;SDS011;47998;53.242;6.386;2023-05-19T04:48:18;32.28;;;13.32;;
51578;SDS011;47998;53.242;6.386;2023-05-19T04:50:48;41.10;;;14.32;;
51578;SDS011;47998;53.242;6.386;2023-05-19T04:53:15;41.45;;;14.82;;
51578;SDS011;47998;53.242;6.386;2023-05-19T04:55:42;32.15;;;13.15;;
51578;SDS011;47998;53.242;6.386;2023-05-19T04:58:08;38.90;;;13.20;;
51578;SDS011;47998;53.242;6.386;2023-05-19T05:00:34;37.85;;;12.90;;
51578;SDS011;47998;53.242;6.386;2023-05-19T05:03:00;30.45;;;12.60;;
51578;SDS011;47998;53.242;6.386;2023-05-19T05:05:29;35.45;;;12.30;;
51578;SDS011;47998;53.242;6.386;2023-05-19T05:07:55;34.33;;;11.98;;
51578;SDS011;47998;53.242;6.386;2023-05-19T05:10:21;30.80;;;11.65;;
51578;SDS011;47998;53.242;6.386;2023-05-19T05:12:47;26.92;;;10.73;;
51578;SDS011;47998;53.242;6.386;2023-05-19T05:15:14;32.63;;;11.13;;
51578;SDS011;47998;53.242;6.386;2023-05-19T05:17:40;26.88;;;11.82;;
51578;SDS011;47998;53.242;6.386;2023-05-19T05:20:06;32.83;;;12.82;;
51578;SDS011;47998;53.242;6.386;2023-05-19T05:22:32;28.30;;;11.57;;
51578;SDS011;47998;53.242;6.386;2023-05-19T05:24:59;26.63;;;11.40;;
51578;SDS011;47998;53.242;6.386;2023-05-19T05:27:25;32.60;;;10.55;;
51578;SDS011;47998;53.242;6.386;2023-05-19T05:29:52;25.48;;;10.77;;
51578;SDS011;47998;53.242;6.386;2023-05-19T05:32:18;25.58;;;10.05;;
51578;SDS011;47998;53.242;6.386;2023-05-19T05:34:43;20.63;;;8.77;;
51578;SDS011;47998;53.242;6.386;2023-05-19T05:37:09;21.85;;;8.77;;
51578;SDS011;47998;53.242;6.386;2023-05-19T05:39:35;37.55;;;9.48;;
51578;SDS011;47998;53.242;6.386;2023-05-19T05:42:01;23.55;;;8.68;;
51578;SDS011;47998;53.242;6.386;2023-05-19T05:44:27;25.55;;;7.85;;
51578;SDS011;47998;53.242;6.386;2023-05-19T05:46:53;23.35;;;8.05;;
51578;SDS011;47998;53.242;6.386;2023-05-19T05:49:19;21.70;;;7.63;;
51578;SDS011;47998;53.242;6.386;2023-05-19T05:51:45;14.27;;;7.38;;
51578;SDS011;47998;53.242;6.386;2023-05-19T05:54:11;15.43;;;6.35;;
51578;SDS011;47998;53.242;6.386;2023-05-19T05:56:37;16.25;;;6.30;;
51578;SDS011;47998;53.242;6.386;2023-05-19T05:59:05;14.65;;;7.18;;
51578;SDS011;47998;53.242;6.386;2023-05-19T06:01:31;17.35;;;6.85;;
51578;SDS011;47998;53.242;6.386;2023-05-19T06:03:57;16.27;;;5.50;;
51578;SDS011;47998;53.242;6.386;2023-05-19T06:06:22;13.18;;;5.07;;
51578;SDS011;47998;53.242;6.386;2023-05-19T06:08:48;16.77;;;5.07;;
51578;SDS011;47998;53.242;6.386;2023-05-19T06:11:14;18.08;;;6.28;;
51578;SDS011;47998;53.242;6.386;2023-05-19T06:13:39;16.38;;;4.47;;
51578;SDS011;47998;53.242;6.386;2023-05-19T06:16:05;12.88;;;4.60;;
51578;SDS011;47998;53.242;6.386;2023-05-19T06:18:31;8.43;;;4.18;;
51578;SDS011;47998;53.242;6.386;2023-05-19T06:20:57;16.30;;;5.38;;
51578;SDS011;47998;53.242;6.386;2023-05-19T06:23:23;16.65;;;5.50;;
51578;SDS011;47998;53.242;6.386;2023-05-19T06:25:50;13.40;;;4.82;;
51578;SDS011;47998;53.242;6.386;2023-05-19T06:28:16;14.35;;;4.55;;
51578;SDS011;47998;53.242;6.386;2023-05-19T06:30:42;11.30;;;5.15;;
51578;SDS011;47998;53.242;6.386;2023-05-19T06:33:08;13.02;;;4.57;;
51578;SDS011;47998;53.242;6.386;2023-05-19T06:35:33;10.65;;;4.65;;
51578;SDS011;47998;53.242;6.386;2023-05-19T06:37:59;10.70;;;4.65;;
51578;SDS011;47998;53.242;6.386;2023-05-19T06:40:25;13.00;;;5.28;;
51578;SDS011;47998;53.242;6.386;2023-05-19T06:42:51;11.35;;;4.50;;
51578;SDS011;47998;53.242;6.386;2023-05-19T06:45:16;11.95;;;3.75;;
51578;SDS011;47998;53.242;6.386;2023-05-19T06:47:46;8.95;;;3.60;;
51578;SDS011;47998;53.242;6.386;2023-05-19T06:50:12;9.77;;;3.83;;
51578;SDS011;47998;53.242;6.386;2023-05-19T06:52:38;8.13;;;4.20;;
51578;SDS011;47998;53.242;6.386;2023-05-19T06:55:05;12.63;;;4.10;;
51578;SDS011;47998;53.242;6.386;2023-05-19T06:57:31;10.07;;;3.63;;
51578;SDS011;47998;53.242;6.386;2023-05-19T06:59:56;13.05;;;8.00;;
51578;SDS011;47998;53.242;6.386;2023-05-19T07:02:22;12.73;;;4.47;;
51578;SDS011;47998;53.242;6.386;2023-05-19T07:04:48;11.93;;;3.75;;
51578;SDS011;47998;53.242;6.386;2023-05-19T07:07:15;10.90;;;3.65;;
51578;SDS011;47998;53.242;6.386;2023-05-19T07:09:41;8.75;;;3.10;;
51578;SDS011;47998;53.242;6.386;2023-05-19T07:12:06;10.13;;;3.15;;
51578;SDS011;47998;53.242;6.386;2023-05-19T07:14:32;9.43;;;3.53;;
51578;SDS011;47998;53.242;6.386;2023-05-19T07:17:00;9.68;;;3.35;;
51578;SDS011;47998;53.242;6.386;2023-05-19T07:19:26;10.52;;;3.53;;
51578;SDS011;47998;53.242;6.386;2023-05-19T07:21:51;9.45;;;3.50;;
51578;SDS011;47998;53.242;6.386;2023-05-19T07:24:18;7.25;;;2.75;;
51578;SDS011;47998;53.242;6.386;2023-05-19T07:26:45;10.70;;;4.30;;
51578;SDS011;47998;53.242;6.386;2023-05-19T07:29:11;6.97;;;3.03;;
51578;SDS011;47998;53.242;6.386;2023-05-19T07:31:37;9.73;;;4.25;;
51578;SDS011;47998;53.242;6.386;2023-05-19T07:34:02;10.48;;;2.80;;
51578;SDS011;47998;53.242;6.386;2023-05-19T07:36:28;6.68;;;2.80;;
51578;SDS011;47998;53.242;6.386;2023-05-19T07:38:55;8.48;;;2.85;;
51578;SDS011;47998;53.242;6.386;2023-05-19T07:41:21;8.15;;;2.85;;
51578;SDS011;47998;53.242;6.386;2023-05-19T07:43:47;7.45;;;2.67;;
51578;SDS011;47998;53.242;6.386;2023-05-19T07:46:13;9.20;;;2.65;;
51578;SDS011;47998;53.242;6.386;2023-05-19T07:48:39;7.78;;;2.58;;
51578;SDS011;47998;53.242;6.386;2023-05-19T07:51:05;10.60;;;2.70;;
51578;SDS011;47998;53.242;6.386;2023-05-19T07:53:34;7.90;;;2.10;;
51578;SDS011;47998;53.242;6.386;2023-05-19T07:56:01;6.43;;;2.63;;
51578;SDS011;47998;53.242;6.386;2023-05-19T07:58:27;9.48;;;3.00;;
51578;SDS011;47998;53.242;6.386;2023-05-19T08:00:52;5.00;;;1.92;;
51578;SDS011;47998;53.242;6.386;2023-05-19T08:03:22;9.68;;;2.90;;
51578;SDS011;47998;53.242;6.386;2023-05-19T08:05:47;9.30;;;2.47;;
51578;SDS011;47998;53.242;6.386;2023-05-19T08:08:13;8.98;;;3.38;;
51578;SDS011;47998;53.242;6.386;2023-05-19T08:10:40;8.95;;;2.65;;
51578;SDS011;47998;53.242;6.386;2023-05-19T08:13:06;10.40;;;2.42;;
51578;SDS011;47998;53.242;6.386;2023-05-19T08:15:32;6.43;;;2.33;;
51578;SDS011;47998;53.242;6.386;2023-05-19T08:17:58;7.93;;;2.80;;
51578;SDS011;47998;53.242;6.386;2023-05-19T08:20:23;9.57;;;2.75;;
51578;SDS011;47998;53.242;6.386;2023-05-19T08:22:49;8.27;;;2.55;;
51578;SDS011;47998;53.242;6.386;2023-05-19T08:25:15;8.70;;;2.50;;
51578;SDS011;47998;53.242;6.386;2023-05-19T08:27:41;7.18;;;2.65;;
51578;SDS011;47998;53.242;6.386;2023-05-19T08:30:07;10.45;;;3.33;;
51578;SDS011;47998;53.242;6.386;2023-05-19T08:32:33;8.45;;;2.78;;
51578;SDS011;47998;53.242;6.386;2023-05-19T08:34:58;9.45;;;2.88;;
51578;SDS011;47998;53.242;6.386;2023-05-19T08:37:24;6.78;;;2.30;;
51578;SDS011;47998;53.242;6.386;2023-05-19T08:39:51;7.75;;;2.25;;
51578;SDS011;47998;53.242;6.386;2023-05-19T08:42:17;8.52;;;2.40;;
51578;SDS011;47998;53.242;6.386;2023-05-19T08:44:42;9.60;;;2.67;;
51578;SDS011;47998;53.242;6.386;2023-05-19T08:47:08;5.93;;;2.30;;
51578;SDS011;47998;53.242;6.386;2023-05-19T08:49:44;8.07;;;2.75;;
51578;SDS011;47998;53.242;6.386;2023-05-19T08:52:22;7.95;;;2.78;;
51578;SDS011;47998;53.242;6.386;2023-05-19T08:55:07;10.68;;;3.47;;
51578;SDS011;47998;53.242;6.386;2023-05-19T08:57:37;9.48;;;3.65;;
51578;SDS011;47998;53.242;6.386;2023-05-19T09:00:03;9.20;;;3.92;;
51578;SDS011;47998;53.242;6.386;2023-05-19T09:02:33;7.80;;;2.53;;
51578;SDS011;47998;53.242;6.386;2023-05-19T09:05:02;9.50;;;2.78;;
51578;SDS011;47998;53.242;6.386;2023-05-19T09:07:29;6.03;;;2.38;;
51578;SDS011;47998;53.242;6.386;2023-05-19T09:09:59;10.88;;;2.40;;
51578;SDS011;47998;53.242;6.386;2023-05-19T09:12:25;11.82;;;2.80;;
51578;SDS011;47998;53.242;6.386;2023-05-19T09:14:51;10.30;;;3.05;;
51578;SDS011;47998;53.242;6.386;2023-05-19T09:17:17;12.07;;;3.13;;
51578;SDS011;47998;53.242;6.386;2023-05-19T09:19:43;7.72;;;2.58;;
51578;SDS011;47998;53.242;6.386;2023-05-19T09:22:12;9.75;;;3.03;;
51578;SDS011;47998;53.242;6.386;2023-05-19T09:24:40;5.88;;;2.60;;
51578;SDS011;47998;53.242;6.386;2023-05-19T09:27:06;7.63;;;2.40;;
51578;SDS011;47998;53.242;6.386;2023-05-19T09:29:32;8.02;;;2.65;;
51578;SDS011;47998;53.242;6.386;2023-05-19T09:31:58;7.55;;;2.80;;
51578;SDS011;47998;53.242;6.386;2023-05-19T09:34:29;7.72;;;3.30;;
51578;SDS011;47998;53.242;6.386;2023-05-19T09:36:55;8.60;;;3.33;;
51578;SDS011;47998;53.242;6.386;2023-05-19T09:39:22;11.10;;;2.67;;
51578;SDS011;47998;53.242;6.386;2023-05-19T09:41:50;5.65;;;2.10;;
51578;SDS011;47998;53.242;6.386;2023-05-19T09:44:23;9.02;;;2.88;;
51578;SDS011;47998;53.242;6.386;2023-05-19T09:46:54;8.02;;;2.85;;
51578;SDS011;47998;53.242;6.386;2023-05-19T09:49:21;11.90;;;2.60;;
51578;SDS011;47998;53.242;6.386;2023-05-19T09:51:54;12.82;;;2.75;;
51578;SDS011;47998;53.242;6.386;2023-05-19T09:56:51;5.63;;;2.47;;
51578;SDS011;47998;53.242;6.386;2023-05-19T09:59:24;12.35;;;2.50;;
51578;SDS011;47998;53.242;6.386;2023-05-19T10:01:54;8.73;;;2.78;;
51578;SDS011;47998;53.242;6.386;2023-05-19T10:04:22;8.43;;;2.53;;
51578;SDS011;47998;53.242;6.386;2023-05-19T10:06:49;5.45;;;2.10;;
51578;SDS011;47998;53.242;6.386;2023-05-19T10:09:22;6.85;;;2.33;;
51578;SDS011;47998;53.242;6.386;2023-05-19T10:14:21;11.02;;;3.20;;
51578;SDS011;47998;53.242;6.386;2023-05-19T10:16:51;7.13;;;2.25;;
51578;SDS011;47998;53.242;6.386;2023-05-19T10:19:19;8.07;;;3.17;;
51578;SDS011;47998;53.242;6.386;2023-05-19T10:21:46;9.07;;;3.08;;
51578;SDS011;47998;53.242;6.386;2023-05-19T10:24:13;9.00;;;3.28;;
51578;SDS011;47998;53.242;6.386;2023-05-19T10:26:39;12.32;;;3.00;;
51578;SDS011;47998;53.242;6.386;2023-05-19T10:29:09;6.93;;;2.65;;
51578;SDS011;47998;53.242;6.386;2023-05-19T10:31:36;9.00;;;2.95;;
51578;SDS011;47998;53.242;6.386;2023-05-19T10:36:57;6.82;;;2.40;;
51578;SDS011;47998;53.242;6.386;2023-05-19T10:39:33;10.43;;;2.35;;
51578;SDS011;47998;53.242;6.386;2023-05-19T10:47:25;6.82;;;2.10;;
51578;SDS011;47998;53.242;6.386;2023-05-19T10:49:54;7.30;;;2.00;;
51578;SDS011;47998;53.242;6.386;2023-05-19T10:52:23;8.10;;;1.98;;
51578;SDS011;47998;53.242;6.386;2023-05-19T10:54:54;7.32;;;2.00;;
51578;SDS011;47998;53.242;6.386;2023-05-19T10:57:25;5.82;;;1.90;;
51578;SDS011;47998;53.242;6.386;2023-05-19T10:59:52;8.05;;;2.42;;
51578;SDS011;47998;53.242;6.386;2023-05-19T11:02:35;5.70;;;2.50;;
51578;SDS011;47998;53.242;6.386;2023-05-19T11:05:14;7.80;;;2.22;;
51578;SDS011;47998;53.242;6.386;2023-05-19T11:07:53;9.52;;;2.25;;
51578;SDS011;47998;53.242;6.386;2023-05-19T11:10:23;4.38;;;2.00;;
51578;SDS011;47998;53.242;6.386;2023-05-19T11:12:49;6.10;;;4.20;;
51578;SDS011;47998;53.242;6.386;2023-05-19T11:15:16;6.13;;;2.00;;
51578;SDS011;47998;53.242;6.386;2023-05-19T11:17:44;5.88;;;2.25;;
51578;SDS011;47998;53.242;6.386;2023-05-19T11:20:28;4.13;;;1.98;;
51578;SDS011;47998;53.242;6.386;2023-05-19T11:23:14;7.40;;;2.20;;
51578;SDS011;47998;53.242;6.386;2023-05-19T11:25:44;7.25;;;2.72;;
51578;SDS011;47998;53.242;6.386;2023-05-19T11:28:12;6.72;;;2.38;;
51578;SDS011;47998;53.242;6.386;2023-05-19T11:30:41;8.00;;;2.58;;
51578;SDS011;47998;53.242;6.386;2023-05-19T11:33:08;8.55;;;2.40;;
51578;SDS011;47998;53.242;6.386;2023-05-19T11:35:34;5.07;;;2.35;;
51578;SDS011;47998;53.242;6.386;2023-05-19T11:38:01;5.88;;;2.55;;
51578;SDS011;47998;53.242;6.386;2023-05-19T11:40:27;5.57;;;2.45;;
51578;SDS011;47998;53.242;6.386;2023-05-19T11:42:54;8.48;;;2.35;;
51578;SDS011;47998;53.242;6.386;2023-05-19T11:45:30;7.88;;;2.78;;
51578;SDS011;47998;53.242;6.386;2023-05-19T11:47:57;6.50;;;2.80;;
51578;SDS011;47998;53.242;6.386;2023-05-19T11:50:24;5.38;;;2.55;;
51578;SDS011;47998;53.242;6.386;2023-05-19T11:52:51;8.75;;;3.13;;
51578;SDS011;47998;53.242;6.386;2023-05-19T11:55:17;6.05;;;2.60;;
51578;SDS011;47998;53.242;6.386;2023-05-19T11:57:58;6.75;;;2.83;;
51578;SDS011;47998;53.242;6.386;2023-05-19T12:00:33;8.57;;;2.65;;
51578;SDS011;47998;53.242;6.386;2023-05-19T12:03:03;6.63;;;3.17;;
51578;SDS011;47998;53.242;6.386;2023-05-19T12:05:29;4.97;;;2.13;;
51578;SDS011;47998;53.242;6.386;2023-05-19T12:07:55;7.00;;;2.25;;
51578;SDS011;47998;53.242;6.386;2023-05-19T12:10:22;7.95;;;2.30;;
51578;SDS011;47998;53.242;6.386;2023-05-19T12:12:50;7.82;;;2.42;;
51578;SDS011;47998;53.242;6.386;2023-05-19T12:15:19;8.60;;;2.15;;
51578;SDS011;47998;53.242;6.386;2023-05-19T12:17:49;9.43;;;2.67;;
51578;SDS011;47998;53.242;6.386;2023-05-19T12:20:22;10.98;;;2.40;;
51578;SDS011;47998;53.242;6.386;2023-05-19T12:22:49;7.15;;;2.30;;
51578;SDS011;47998;53.242;6.386;2023-05-19T12:25:16;6.70;;;2.00;;
51578;SDS011;47998;53.242;6.386;2023-05-19T12:27:42;7.07;;;2.50;;
51578;SDS011;47998;53.242;6.386;2023-05-19T12:30:09;9.38;;;2.45;;
51578;SDS011;47998;53.242;6.386;2023-05-19T12:32:36;6.97;;;2.53;;
51578;SDS011;47998;53.242;6.386;2023-05-19T12:35:03;9.27;;;2.33;;
51578;SDS011;47998;53.242;6.386;2023-05-19T12:37:30;7.72;;;3.42;;
51578;SDS011;47998;53.242;6.386;2023-05-19T12:40:00;6.07;;;2.15;;
51578;SDS011;47998;53.242;6.386;2023-05-19T12:42:28;10.15;;;2.55;;
51578;SDS011;47998;53.242;6.386;2023-05-19T12:44:59;5.63;;;1.98;;
51578;SDS011;47998;53.242;6.386;2023-05-19T12:47:33;6.68;;;2.08;;
51578;SDS011;47998;53.242;6.386;2023-05-19T12:50:06;9.32;;;2.78;;
51578;SDS011;47998;53.242;6.386;2023-05-19T12:52:40;8.00;;;2.70;;
51578;SDS011;47998;53.242;6.386;2023-05-19T12:57:38;5.72;;;2.35;;
51578;SDS011;47998;53.242;6.386;2023-05-19T13:00:15;4.40;;;1.30;;
51578;SDS011;47998;53.242;6.386;2023-05-19T13:05:31;8.50;;;2.67;;
51578;SDS011;47998;53.242;6.386;2023-05-19T13:07:59;5.60;;;2.17;;
51578;SDS011;47998;53.242;6.386;2023-05-19T13:10:26;7.90;;;1.95;;
51578;SDS011;47998;53.242;6.386;2023-05-19T13:12:54;4.47;;;1.67;;
51578;SDS011;47998;53.242;6.386;2023-05-19T13:15:21;6.63;;;1.92;;
51578;SDS011;47998;53.242;6.386;2023-05-19T13:17:48;6.55;;;2.00;;
51578;SDS011;47998;53.242;6.386;2023-05-19T13:20:15;4.65;;;1.80;;
51578;SDS011;47998;53.242;6.386;2023-05-19T13:22:40;4.90;;;1.95;;
51578;SDS011;47998;53.242;6.386;2023-05-19T13:25:07;9.70;;;3.03;;
51578;SDS011;47998;53.242;6.386;2023-05-19T13:27:33;8.18;;;2.72;;
51578;SDS011;47998;53.242;6.386;2023-05-19T13:29:59;8.82;;;2.50;;
51578;SDS011;47998;53.242;6.386;2023-05-19T13:32:25;6.38;;;2.45;;
51578;SDS011;47998;53.242;6.386;2023-05-19T13:34:51;12.10;;;3.72;;
51578;SDS011;47998;53.242;6.386;2023-05-19T13:37:17;9.93;;;3.00;;
51578;SDS011;47998;53.242;6.386;2023-05-19T13:39:42;10.05;;;3.55;;
51578;SDS011;47998;53.242;6.386;2023-05-19T13:42:08;10.77;;;3.90;;
51578;SDS011;47998;53.242;6.386;2023-05-19T13:44:34;10.88;;;3.50;;
51578;SDS011;47998;53.242;6.386;2023-05-19T13:46:59;9.07;;;3.80;;
51578;SDS011;47998;53.242;6.386;2023-05-19T13:49:25;7.45;;;2.97;;
51578;SDS011;47998;53.242;6.386;2023-05-19T13:51:54;10.60;;;3.40;;
51578;SDS011;47998;53.242;6.386;2023-05-19T13:54:20;11.32;;;3.38;;
51578;SDS011;47998;53.242;6.386;2023-05-19T13:56:46;7.78;;;3.10;;
51578;SDS011;47998;53.242;6.386;2023-05-19T13:59:12;12.07;;;3.50;;
51578;SDS011;47998;53.242;6.386;2023-05-19T14:01:39;11.38;;;3.58;;
51578;SDS011;47998;53.242;6.386;2023-05-19T14:04:05;11.60;;;3.22;;
51578;SDS011;47998;53.242;6.386;2023-05-19T14:06:31;11.18;;;3.42;;
51578;SDS011;47998;53.242;6.386;2023-05-19T14:08:57;10.52;;;3.38;;
51578;SDS011;47998;53.242;6.386;2023-05-19T14:11:22;9.90;;;3.17;;
51578;SDS011;47998;53.242;6.386;2023-05-19T14:13:48;9.65;;;3.05;;
51578;SDS011;47998;53.242;6.386;2023-05-19T14:16:14;10.43;;;3.65;;
51578;SDS011;47998;53.242;6.386;2023-05-19T14:18:41;11.07;;;4.07;;
51578;SDS011;47998;53.242;6.386;2023-05-19T14:21:07;10.93;;;3.40;;
51578;SDS011;47998;53.242;6.386;2023-05-19T14:23:32;8.73;;;3.28;;
51578;SDS011;47998;53.242;6.386;2023-05-19T14:25:58;8.43;;;3.05;;
51578;SDS011;47998;53.242;6.386;2023-05-19T14:28:24;10.77;;;3.25;;
51578;SDS011;47998;53.242;6.386;2023-05-19T14:30:50;7.72;;;3.35;;
51578;SDS011;47998;53.242;6.386;2023-05-19T14:33:16;7.57;;;3.00;;
51578;SDS011;47998;53.242;6.386;2023-05-19T14:35:43;9.77;;;3.30;;
51578;SDS011;47998;53.242;6.386;2023-05-19T14:38:09;8.40;;;3.35;;
51578;SDS011;47998;53.242;6.386;2023-05-19T14:40:35;11.27;;;2.95;;
51578;SDS011;47998;53.242;6.386;2023-05-19T14:43:02;8.43;;;3.20;;
51578;SDS011;47998;53.242;6.386;2023-05-19T14:45:28;11.95;;;3.90;;
51578;SDS011;47998;53.242;6.386;2023-05-19T14:47:53;10.68;;;3.45;;
51578;SDS011;47998;53.242;6.386;2023-05-19T14:50:19;12.73;;;3.75;;
51578;SDS011;47998;53.242;6.386;2023-05-19T14:52:45;10.38;;;3.65;;
51578;SDS011;47998;53.242;6.386;2023-05-19T14:55:11;9.50;;;2.97;;
51578;SDS011;47998;53.242;6.386;2023-05-19T14:57:36;12.65;;;3.28;;
51578;SDS011;47998;53.242;6.386;2023-05-19T15:00:02;10.63;;;3.38;;
51578;SDS011;47998;53.242;6.386;2023-05-19T15:02:28;8.43;;;3.10;;
51578;SDS011;47998;53.242;6.386;2023-05-19T15:04:54;8.82;;;3.08;;
51578;SDS011;47998;53.242;6.386;2023-05-19T15:07:20;11.10;;;3.42;;
51578;SDS011;47998;53.242;6.386;2023-05-19T15:09:45;10.43;;;3.30;;
51578;SDS011;47998;53.242;6.386;2023-05-19T15:12:11;9.10;;;2.75;;